createdAt,value
2019-04-21T00:01:37.675Z,22.70
2019-04-21T00:04:34.627Z,22.70
2019-04-21T00:07:28.095Z,22.80
2019-04-21T00:10:18.793Z,22.80
2019-04-21T00:13:03.750Z,22.80
2019-04-21T00:15:40.747Z,22.80
2019-04-21T00:18:50.587Z,22.80
2019-04-21T00:21:42.674Z,22.80
2019-04-21T00:24:37.451Z,22.80
2019-04-21T00:27:24.600Z,22.80
2019-04-21T00:30:15.687Z,22.80
2019-04-21T00:32:56.369Z,22.80
2019-04-21T00:35:42.175Z,22.80
2019-04-21T00:38:49.275Z,22.80
2019-04-21T00:41:29.451Z,22.80
2019-04-21T00:44:11.458Z,22.90
2019-04-21T00:47:03.087Z,22.80
2019-04-21T00:50:00.838Z,22.90
2019-04-21T00:52:58.105Z,22.80
2019-04-21T00:55:45.541Z,22.80
2019-04-21T00:58:33.155Z,22.80
2019-04-21T01:01:20.665Z,22.80
2019-04-21T01:04:14.291Z,22.80
2019-04-21T01:07:02.979Z,22.80
2019-04-21T01:09:37.517Z,22.80
2019-04-21T01:12:37.896Z,22.80
2019-04-21T01:15:30.635Z,22.90
2019-04-21T01:18:09.275Z,22.80
2019-04-21T01:20:37.342Z,22.90
2019-04-21T01:23:23.799Z,22.90
2019-04-21T01:26:25.302Z,22.90
2019-04-21T01:29:15.710Z,22.90
2019-04-21T01:32:19.416Z,22.90
2019-04-21T01:34:58.351Z,22.90
2019-04-21T01:37:52.450Z,22.90
2019-04-21T01:40:34.868Z,22.90
2019-04-21T01:43:23.457Z,22.90
2019-04-21T01:46:11.262Z,22.90
2019-04-21T01:48:53.119Z,22.90
2019-04-21T01:52:02.774Z,22.90
2019-04-21T01:54:57.633Z,22.90
2019-04-21T01:57:57.649Z,22.90
2019-04-21T02:00:51.971Z,22.90
2019-04-21T02:06:33.186Z,22.90
2019-04-21T02:09:20.184Z,22.90
2019-04-21T02:12:14.775Z,22.90
2019-04-21T02:15:06.298Z,22.90
2019-04-21T02:17:54.096Z,22.90
2019-04-21T02:20:29.401Z,23.00
2019-04-21T02:23:34.753Z,23.00
2019-04-21T02:26:16.060Z,23.00
2019-04-21T02:29:10.684Z,23.00
2019-04-21T02:32:01.618Z,23.00
2019-04-21T02:34:57.525Z,23.00
2019-04-21T02:43:18.662Z,23.00
2019-04-21T02:46:08.528Z,23.00
2019-04-21T02:49:04.015Z,23.00
2019-04-21T02:57:15.637Z,23.00
2019-04-21T03:03:14.029Z,23.00
2019-04-21T03:06:24.788Z,23.00
2019-04-21T03:09:09.191Z,23.00
2019-04-21T03:12:05.617Z,23.00
2019-04-21T03:14:56.425Z,23.00
2019-04-21T03:17:43.594Z,23.00
2019-04-21T03:20:23.446Z,23.00
2019-04-21T03:23:21.032Z,23.00
2019-04-21T03:26:07.315Z,23.00
2019-04-21T03:28:49.529Z,23.00
2019-04-21T03:32:06.229Z,23.00
2019-04-21T03:34:41.160Z,23.00
2019-04-21T03:37:06.970Z,23.00
2019-04-21T03:45:46.583Z,23.00
2019-04-21T03:48:26.760Z,23.00
2019-04-21T03:51:12.519Z,23.00
2019-04-21T03:53:55.777Z,23.00
2019-04-21T03:57:01.407Z,23.00
2019-04-21T03:59:24.562Z,23.00
2019-04-21T04:02:42.667Z,23.00
2019-04-21T04:05:24.309Z,23.10
2019-04-21T04:08:09.421Z,23.10
2019-04-21T04:11:05.083Z,23.10
2019-04-21T04:16:26.568Z,23.10
2019-04-21T04:19:18.624Z,23.10
2019-04-21T04:22:20.950Z,23.10
2019-04-21T04:24:57.988Z,23.10
2019-04-21T04:30:31.664Z,23.30
2019-04-21T04:33:23.931Z,23.40
2019-04-21T04:39:29.836Z,23.60
2019-04-21T04:42:12.753Z,23.70
2019-04-21T04:47:43.093Z,23.70
2019-04-21T04:50:33.828Z,23.80
2019-04-21T04:53:20.761Z,23.80
2019-04-21T04:56:05.782Z,23.80
2019-04-21T04:59:18.516Z,23.80
2019-04-21T05:02:08.720Z,23.80
2019-04-21T05:04:35.428Z,24.00
2019-04-21T05:10:09.826Z,24.30
2019-04-21T05:12:51.212Z,24.50
2019-04-21T05:15:38.313Z,24.70
2019-04-21T05:18:38.622Z,24.90
2019-04-21T05:21:24.481Z,25.10
2019-04-21T05:23:57.147Z,25.20
2019-04-21T05:26:44.832Z,25.40
2019-04-21T05:29:37.806Z,25.50
2019-04-21T05:32:40.282Z,25.70
2019-04-21T05:35:55.685Z,25.80
2019-04-21T05:39:07.194Z,25.90
2019-04-21T05:41:41.772Z,26.00
2019-04-21T05:44:52.763Z,26.20
2019-04-21T05:47:55.862Z,26.30
2019-04-21T05:50:34.960Z,26.40
2019-04-21T05:53:29.515Z,26.50
2019-04-21T05:56:17.329Z,26.60
2019-04-21T05:59:03.429Z,26.70
2019-04-21T06:02:02.128Z,26.80
2019-04-21T06:05:02.481Z,26.90
2019-04-21T06:07:28.993Z,27.00
2019-04-21T06:10:13.780Z,27.10
2019-04-21T06:13:05.815Z,27.20
2019-04-21T06:15:58.165Z,27.30
2019-04-21T06:21:28.094Z,27.50
2019-04-21T06:24:17.383Z,27.50
2019-04-21T06:29:55.678Z,27.70
2019-04-21T06:36:21.580Z,27.90
2019-04-21T06:39:11.384Z,28.00
2019-04-21T06:44:20.349Z,28.20
2019-04-21T06:47:26.620Z,28.30
2019-04-21T06:50:00.500Z,28.30
2019-04-21T06:55:41.930Z,28.50
2019-04-21T06:58:27.119Z,28.60
2019-04-21T07:01:15.520Z,28.60
2019-04-21T07:04:11.764Z,28.70
2019-04-21T07:09:36.320Z,28.90
2019-04-21T07:12:23.164Z,28.90
2019-04-21T07:15:13.315Z,29.00
2019-04-21T07:18:08.967Z,29.10
2019-04-21T07:20:53.181Z,29.10
2019-04-21T07:23:40.492Z,29.20
2019-04-21T07:26:25.575Z,29.20
2019-04-21T07:29:14.142Z,29.20
2019-04-21T07:32:05.074Z,29.30
2019-04-21T07:35:00.636Z,29.30
2019-04-21T07:37:35.299Z,29.40
2019-04-21T07:40:19.063Z,29.40
2019-04-21T07:43:09.046Z,29.40
2019-04-21T07:45:52.711Z,29.40
2019-04-21T07:48:51.175Z,29.40
2019-04-21T07:51:50.667Z,29.30
2019-04-21T07:54:55.030Z,29.20
2019-04-21T07:57:21.331Z,29.20
2019-04-21T08:00:21.026Z,29.30
2019-04-21T08:03:05.147Z,29.30
2019-04-21T08:05:52.569Z,29.30
2019-04-21T08:08:38.653Z,29.30
2019-04-21T08:11:19.435Z,29.40
2019-04-21T08:14:06.914Z,29.40
2019-04-21T08:17:06.020Z,29.40
2019-04-21T08:19:44.592Z,29.40
2019-04-21T08:22:43.184Z,29.40
2019-04-21T08:25:27.347Z,29.50
2019-04-21T08:28:13.860Z,29.50
2019-04-21T08:31:04.843Z,29.50
2019-04-21T08:33:56.087Z,29.50
2019-04-21T08:36:33.978Z,29.50
2019-04-21T08:39:35.651Z,29.40
2019-04-21T08:42:19.809Z,29.40
2019-04-21T08:45:10.780Z,29.50
2019-04-21T08:47:52.551Z,29.50
2019-04-21T08:50:36.292Z,29.40
2019-04-21T08:53:34.278Z,29.40
2019-04-21T08:56:41.661Z,29.40
2019-04-21T09:00:01.348Z,29.40
2019-04-21T09:03:11.181Z,29.40
2019-04-21T09:05:53.891Z,29.40
2019-04-21T09:08:44.492Z,29.30
2019-04-21T09:11:28.877Z,29.30
2019-04-21T09:14:21.206Z,29.20
2019-04-21T09:17:01.670Z,29.20
2019-04-21T09:20:13.926Z,29.20
2019-04-21T09:22:35.817Z,29.10
2019-04-21T09:25:38.352Z,29.10
2019-04-21T09:28:11.115Z,29.00
2019-04-21T09:30:52.515Z,29.00
2019-04-21T09:33:40.224Z,28.90
2019-04-21T09:36:25.469Z,28.80
2019-04-21T09:39:16.620Z,28.80
2019-04-21T09:42:02.783Z,28.70
2019-04-21T09:44:51.946Z,28.70
2019-04-21T09:47:46.002Z,28.60
2019-04-21T09:50:24.915Z,28.50
2019-04-21T09:53:22.204Z,28.40
2019-04-21T09:56:03.139Z,28.30
2019-04-21T09:58:51.682Z,28.30
2019-04-21T10:01:49.119Z,28.20
2019-04-21T10:04:23.245Z,28.20
2019-04-21T10:07:20.942Z,28.10
2019-04-21T10:09:58.205Z,28.10
2019-04-21T10:12:45.485Z,28.00
2019-04-21T10:15:33.133Z,28.00
2019-04-21T10:18:21.523Z,27.90
2019-04-21T10:21:09.607Z,27.90
2019-04-21T10:23:59.774Z,27.80
2019-04-21T10:26:47.174Z,27.70
2019-04-21T10:29:35.811Z,27.60
2019-04-21T10:32:25.179Z,27.60
2019-04-21T10:35:12.913Z,27.50
2019-04-21T10:38:12.877Z,27.40
2019-04-21T10:40:47.622Z,27.40
2019-04-21T10:43:35.480Z,27.30
2019-04-21T10:46:22.479Z,27.20
2019-04-21T10:49:08.687Z,27.10
2019-04-21T10:51:55.057Z,27.10
2019-04-21T10:55:03.347Z,27.00
2019-04-21T10:57:30.656Z,27.00
2019-04-21T11:00:17.649Z,26.90
2019-04-21T11:03:43.140Z,26.80
2019-04-21T11:06:30.867Z,26.80
2019-04-21T11:09:17.894Z,26.70
2019-04-21T11:12:04.124Z,26.70
2019-04-21T11:14:51.451Z,26.60
2019-04-21T11:17:40.620Z,26.60
2019-04-21T11:20:26.923Z,26.60
2019-04-21T11:23:14.166Z,26.50
2019-04-21T11:26:00.579Z,26.50
2019-04-21T11:28:48.972Z,26.40
2019-04-21T11:31:36.913Z,26.40
2019-04-21T11:34:23.574Z,26.40
2019-04-21T11:37:12.418Z,26.30
2019-04-21T11:40:06.859Z,26.30
2019-04-21T11:42:48.036Z,26.20
2019-04-21T11:45:37.395Z,26.20
2019-04-21T11:48:28.399Z,26.10
2019-04-21T11:51:15.204Z,26.10
2019-04-21T11:54:01.794Z,26.10
2019-04-21T11:56:49.071Z,26.10
2019-04-21T11:59:35.797Z,26.00
2019-04-21T12:02:22.011Z,26.00
2019-04-21T12:05:09.628Z,26.00
2019-04-21T12:07:58.381Z,26.00
2019-04-21T12:10:45.034Z,25.90
2019-04-21T12:13:32.188Z,25.90
2019-04-21T12:16:19.043Z,25.90
2019-04-21T12:19:07.073Z,25.90
2019-04-21T12:22:05.333Z,25.90
2019-04-21T12:24:41.313Z,25.90
2019-04-21T12:27:30.165Z,25.80
2019-04-21T12:30:17.634Z,25.80
2019-04-21T12:33:12.049Z,25.80
2019-04-21T12:35:59.898Z,25.80
2019-04-21T12:38:50.874Z,25.80
2019-04-21T12:41:34.225Z,25.70
2019-04-21T12:44:20.574Z,25.70
2019-04-21T12:47:07.921Z,25.70
2019-04-21T12:49:55.304Z,25.70
2019-04-21T12:52:41.999Z,25.70
2019-04-21T12:55:31.873Z,25.60
2019-04-21T12:58:17.563Z,25.60
2019-04-21T13:01:05.047Z,25.60
2019-04-21T13:03:52.114Z,25.60
2019-04-21T13:06:39.437Z,25.60
2019-04-21T13:09:27.531Z,25.50
2019-04-21T13:12:17.199Z,25.50
2019-04-21T13:15:04.358Z,25.50
2019-04-21T13:17:52.130Z,25.40
2019-04-21T13:20:39.901Z,25.40
2019-04-21T13:23:27.101Z,25.40
2019-04-21T13:26:13.395Z,25.40
2019-04-21T13:29:00.520Z,25.40
2019-04-21T13:31:48.074Z,25.40
2019-04-21T13:34:35.893Z,25.30
2019-04-21T13:37:23.540Z,25.30
2019-04-21T13:40:58.307Z,25.30
2019-04-21T13:43:29.357Z,25.30
2019-04-21T13:46:17.658Z,25.20
2019-04-21T13:49:05.775Z,25.10
2019-04-21T13:51:51.995Z,25.10
2019-04-21T13:54:39.770Z,25.00
2019-04-21T13:57:26.358Z,24.90
2019-04-21T14:00:13.295Z,24.90
2019-04-21T14:03:00.857Z,24.90
2019-04-21T14:05:48.512Z,24.80
2019-04-21T14:08:36.858Z,24.80
2019-04-21T14:11:23.407Z,24.70
2019-04-21T14:14:10.409Z,24.70
2019-04-21T14:16:56.487Z,24.70
2019-04-21T14:19:43.527Z,24.70
2019-04-21T14:22:29.664Z,24.70
2019-04-21T14:25:17.464Z,24.70
2019-04-21T14:28:04.061Z,24.70
2019-04-21T14:30:50.607Z,24.70
2019-04-21T14:33:38.149Z,24.70
2019-04-21T14:36:24.483Z,24.70
2019-04-21T14:39:12.420Z,24.70
2019-04-21T14:42:00.052Z,24.70
2019-04-21T14:44:46.945Z,24.70
2019-04-21T14:47:42.204Z,24.70
2019-04-21T14:50:48.361Z,24.70
2019-04-21T14:53:45.638Z,24.70
2019-04-21T14:56:31.748Z,24.70
2019-04-21T14:59:19.245Z,24.70
2019-04-21T15:02:05.590Z,24.70
2019-04-21T15:04:51.692Z,24.70
2019-04-21T15:07:39.215Z,24.70
2019-04-21T15:10:28.770Z,24.70
2019-04-21T15:13:14.059Z,24.70
2019-04-21T15:16:00.638Z,24.70
2019-04-21T15:18:46.973Z,24.80
2019-04-21T15:21:33.471Z,24.80
2019-04-21T15:24:20.467Z,24.80
2019-04-21T15:27:07.181Z,24.70
2019-04-21T15:29:53.266Z,24.80
2019-04-21T15:32:40.251Z,24.80
2019-04-21T15:35:27.099Z,24.80
2019-04-21T15:38:14.018Z,24.80
2019-04-21T15:41:04.429Z,24.80
2019-04-21T15:43:48.863Z,24.80
2019-04-21T15:46:35.352Z,24.80
2019-04-21T15:49:22.947Z,24.80
2019-04-21T15:52:11.742Z,24.70
2019-04-21T15:55:03.272Z,24.70
2019-04-21T15:58:18.719Z,24.70
2019-04-21T16:01:12.303Z,24.70
2019-04-21T16:04:00.508Z,24.70
2019-04-21T16:06:47.788Z,24.70
2019-04-21T16:09:37.413Z,24.70
2019-04-21T16:12:23.191Z,24.70
2019-04-21T16:15:14.827Z,24.70
2019-04-21T16:18:05.452Z,24.70
2019-04-21T16:20:51.747Z,24.70
2019-04-21T16:23:38.350Z,24.70
2019-04-21T16:26:24.666Z,24.70
2019-04-21T16:29:11.415Z,24.70
2019-04-21T16:31:59.520Z,24.70
2019-04-21T16:34:53.615Z,24.70
2019-04-21T16:37:35.343Z,24.70
2019-04-21T16:40:23.322Z,24.70
2019-04-21T16:43:10.138Z,24.60
2019-04-21T16:45:57.137Z,24.60
2019-04-21T16:48:44.165Z,24.60
2019-04-21T16:51:31.794Z,24.60
2019-04-21T16:54:22.501Z,24.60
2019-04-21T16:57:21.692Z,24.60
2019-04-21T17:00:20.179Z,24.60
2019-04-21T17:03:00.811Z,24.60
2019-04-21T17:05:48.387Z,24.50
2019-04-21T17:08:34.667Z,24.50
2019-04-21T17:11:27.178Z,24.50
2019-04-21T17:14:27.279Z,24.50
2019-04-21T17:17:17.807Z,24.50
2019-04-21T17:19:49.066Z,24.50
2019-04-21T17:22:33.630Z,24.50
2019-04-21T17:25:21.673Z,24.50
2019-04-21T17:28:08.019Z,24.60
2019-04-21T17:30:54.686Z,24.60
2019-04-21T17:33:41.447Z,24.70
2019-04-21T17:36:27.584Z,24.80
2019-04-21T17:39:13.999Z,24.90
2019-04-21T17:42:14.141Z,24.90
2019-04-21T17:44:48.675Z,24.90
2019-04-21T17:47:44.662Z,24.80
2019-04-21T17:50:43.609Z,24.80
2019-04-21T17:53:51.575Z,24.70
2019-04-21T17:57:01.753Z,24.60
2019-04-21T17:59:58.405Z,24.50
2019-04-21T18:02:38.541Z,24.40
2019-04-21T18:05:21.013Z,24.40
2019-04-21T18:08:11.064Z,24.30
2019-04-21T18:10:53.438Z,24.20
2019-04-21T18:13:26.968Z,24.10
2019-04-21T18:16:25.323Z,24.00
2019-04-21T18:19:04.627Z,23.90
2019-04-21T18:22:09.159Z,23.80
2019-04-21T18:25:05.698Z,23.70
2019-04-21T18:27:46.694Z,23.60
2019-04-21T18:30:46.813Z,23.60
2019-04-21T18:33:40.267Z,23.50
2019-04-21T18:36:34.886Z,23.40
2019-04-21T18:39:40.946Z,23.40
2019-04-21T18:42:38.728Z,23.30
2019-04-21T18:45:47.905Z,23.20
2019-04-21T18:48:39.853Z,23.10
2019-04-21T18:51:32.984Z,23.00
2019-04-21T18:54:37.744Z,22.90
2019-04-21T18:57:18.710Z,22.90
2019-04-21T18:59:53.428Z,22.80
2019-04-21T19:02:45.648Z,22.70
2019-04-21T19:05:29.632Z,22.70
2019-04-21T19:08:30.674Z,22.60
2019-04-21T19:11:24.044Z,22.60
2019-04-21T19:14:28.573Z,22.50
2019-04-21T19:17:29.166Z,22.40
2019-04-21T19:22:42.141Z,22.30
2019-04-21T19:25:25.451Z,22.20
2019-04-21T19:28:16.923Z,22.20
2019-04-21T19:31:10.991Z,22.10
2019-04-21T19:33:48.098Z,22.00
2019-04-21T19:36:25.643Z,21.90
2019-04-21T19:39:23.350Z,21.80
2019-04-21T19:42:12.702Z,21.80
2019-04-21T19:45:05.938Z,21.70
2019-04-21T19:47:56.712Z,21.60
2019-04-21T19:50:46.685Z,21.60
2019-04-21T19:53:31.352Z,21.50
2019-04-21T19:56:05.937Z,21.40
2019-04-21T19:58:52.970Z,21.40
2019-04-21T20:01:39.342Z,21.30
2019-04-21T20:04:34.419Z,21.20
2019-04-21T20:07:26.501Z,21.20
2019-04-21T20:10:27.201Z,21.10
2019-04-21T20:13:14.806Z,21.10
2019-04-21T20:16:03.875Z,21.10
2019-04-21T20:18:39.822Z,21.10
2019-04-21T20:21:20.763Z,21.20
2019-04-21T20:24:11.082Z,21.20
2019-04-21T20:27:02.232Z,21.30
2019-04-21T20:30:02.262Z,21.40
2019-04-21T20:32:52.224Z,21.40
2019-04-21T20:35:46.942Z,21.50
2019-04-21T20:38:21.911Z,21.50
2019-04-21T20:41:03.458Z,21.60
2019-04-21T20:44:01.041Z,21.60
2019-04-21T20:46:45.957Z,21.60
2019-04-21T20:49:31.691Z,21.60
2019-04-21T20:52:30.920Z,21.70
2019-04-21T20:55:05.481Z,21.70
2019-04-21T20:57:53.779Z,21.80
2019-04-21T21:01:03.001Z,21.80
2019-04-21T21:03:35.060Z,21.90
2019-04-21T21:06:21.890Z,21.90
2019-04-21T21:09:10.372Z,21.90
2019-04-21T21:12:11.368Z,21.90
2019-04-21T21:14:43.872Z,21.90
2019-04-21T21:20:29.478Z,22.00
2019-04-21T21:23:05.714Z,22.00
2019-04-21T21:26:01.911Z,22.00
2019-04-21T21:28:44.117Z,22.00
2019-04-21T21:31:37.307Z,22.10
2019-04-21T21:34:27.732Z,22.00
2019-04-21T21:37:21.664Z,22.10
2019-04-21T21:40:07.831Z,22.10
2019-04-21T21:42:37.605Z,22.10
2019-04-21T21:45:24.894Z,22.10
2019-04-21T21:48:26.398Z,22.10
2019-04-21T21:51:05.804Z,22.10
2019-04-21T21:53:45.859Z,22.10
2019-04-21T21:56:32.450Z,22.10
2019-04-21T21:59:22.809Z,22.10
2019-04-21T22:02:09.534Z,22.10
2019-04-21T22:05:06.634Z,22.10
2019-04-21T22:07:42.891Z,22.10
2019-04-21T22:10:32.117Z,22.20
2019-04-21T22:13:21.905Z,22.20
2019-04-21T22:16:10.592Z,22.20
2019-04-21T22:19:34.011Z,22.20
2019-04-21T22:21:57.804Z,22.20
2019-04-21T22:24:46.910Z,22.20
2019-04-21T22:27:19.017Z,22.30
2019-04-21T22:30:10.528Z,22.30
2019-04-21T22:33:00.704Z,22.30
2019-04-21T22:35:49.034Z,22.30
2019-04-21T22:38:43.399Z,22.30
2019-04-21T22:41:28.147Z,22.30
2019-04-21T22:44:07.048Z,22.30
2019-04-21T22:47:02.947Z,22.30
2019-04-21T22:49:41.052Z,22.30
2019-04-21T22:52:29.861Z,22.30
2019-04-21T22:55:20.823Z,22.30
2019-04-21T22:58:03.880Z,22.30
2019-04-21T23:00:56.175Z,22.30
2019-04-21T23:03:47.028Z,22.30
2019-04-21T23:06:32.297Z,22.30
2019-04-21T23:09:16.886Z,22.30
2019-04-21T23:12:04.915Z,22.30
2019-04-21T23:14:58.470Z,22.30
2019-04-21T23:18:00.155Z,22.30
2019-04-21T23:20:47.726Z,22.30
2019-04-21T23:23:35.816Z,22.30
2019-04-21T23:26:21.003Z,22.30
2019-04-21T23:29:15.512Z,22.30
2019-04-21T23:31:55.064Z,22.30
2019-04-21T23:34:34.055Z,22.30
2019-04-21T23:37:19.631Z,22.30
2019-04-21T23:40:10.275Z,22.20
2019-04-21T23:42:51.592Z,22.30
2019-04-21T23:45:41.851Z,22.30
2019-04-21T23:48:39.096Z,22.30
2019-04-21T23:51:27.527Z,22.30
2019-04-21T23:54:03.333Z,22.30
2019-04-21T23:56:49.603Z,22.30
2019-04-21T23:59:42.188Z,22.30
